Time;durP1;ratioP1;P1;durP2;ratioP2;P2;SDS_P1;SDS_P2;PMS_P1;PMS_P2;Temp;Humidity;BMP_temperature;BMP_pressure;BME280_temperature;BME280_humidity;BME280_pressure;Samples;Min_cycle;Max_cycle;Signal;HPM_P1;HPM_P2
2023/10/23 00:02:27;;;;;;;6.03;2.90;;;12.10;99.90;;;-141.84;85.97;16120.75;4984123;28;20227;-60
2023/10/23 00:04:58;;;;;;;6.32;2.78;;;12.20;99.90;;;-141.84;85.67;16187.78;4984978;28;20318;-61
2023/10/23 00:07:26;;;;;;;5.28;2.35;;;12.10;99.90;;;-141.84;85.77;16139.03;4984523;28;20305;-61
2023/10/23 00:09:55;;;;;;;3.05;2.40;;;12.10;99.90;;;-141.84;86.12;15998.94;4984034;28;20660;-61
2023/10/23 00:12:24;;;;;;;4.40;2.30;;;12.10;99.90;;;-141.84;86.53;15887.28;4984583;28;20643;-60
2023/10/23 00:14:52;;;;;;;5.63;2.63;;;12.00;99.90;;;-141.84;87.02;15795.91;4984440;28;20231;-59
2023/10/23 00:17:20;;;;;;;5.70;2.63;;;12.00;99.90;;;-141.84;87.51;15708.59;4983980;28;20325;-60
2023/10/23 00:19:48;;;;;;;8.73;2.67;;;12.00;99.90;;;-141.84;87.63;15651.75;4984074;28;20245;-61
2023/10/23 00:22:18;;;;;;;6.03;3.00;;;11.90;99.90;;;-141.84;87.76;15633.50;4976010;28;24351;-60
2023/10/23 00:24:46;;;;;;;4.47;2.55;;;11.90;99.90;;;-141.84;87.84;15609.13;4984118;28;20619;-61
2023/10/23 00:27:14;;;;;;;8.30;2.70;;;11.80;99.90;;;-141.84;87.83;15647.69;4983985;28;20207;-60
2023/10/23 00:29:43;;;;;;;6.05;2.70;;;11.80;99.90;;;-141.84;87.46;15688.31;4983240;28;20266;-61
2023/10/23 00:32:11;;;;;;;2.63;2.42;;;11.80;99.90;;;-141.84;87.71;15651.75;4975393;28;20255;-61
2023/10/23 00:34:39;;;;;;;3.72;2.50;;;11.80;99.90;;;-141.84;87.83;15576.66;4984329;28;20353;-60
2023/10/23 00:37:07;;;;;;;6.68;2.85;;;11.70;99.90;;;-141.84;87.95;15584.78;4984485;28;20648;-62
2023/10/23 00:39:37;;;;;;;4.05;1.92;;;11.70;99.90;;;-141.84;87.94;15556.34;4984857;28;20210;-60
2023/10/23 00:42:06;;;;;;;5.97;2.50;;;11.70;99.90;;;-141.84;87.79;15594.91;4996065;28;20226;-61
2023/10/23 00:44:35;;;;;;;8.40;2.40;;;11.70;99.90;;;-141.84;87.83;15592.88;4994052;28;20242;-60
2023/10/23 00:47:04;;;;;;;4.50;2.28;;;11.70;99.90;;;-141.84;87.77;15601.00;4983779;28;20608;-60
2023/10/23 00:49:33;;;;;;;6.32;2.33;;;11.70;99.90;;;-141.84;87.88;15596.94;4984080;28;20259;-62
2023/10/23 00:52:02;;;;;;;5.18;2.78;;;11.70;99.90;;;-141.84;87.90;15623.34;4970289;28;20282;-61
2023/10/23 00:54:32;;;;;;;4.53;2.53;;;11.80;99.90;;;-141.84;87.30;15674.09;4983833;28;20208;-61
2023/10/23 00:57:04;;;;;;;7.72;2.75;;;11.80;99.90;;;-141.84;87.11;15706.59;4964205;28;20242;-61
2023/10/23 00:59:32;;;;;;;4.13;2.22;;;11.80;99.90;;;-141.84;87.12;15735.00;4970488;28;20597;-62
2023/10/23 01:02:01;;;;;;;6.03;2.38;;;11.80;99.90;;;-141.84;87.44;15680.19;4975949;28;20310;-61
2023/10/23 01:04:29;;;;;;;3.47;2.00;;;11.80;99.90;;;-141.84;87.58;15627.41;4983517;28;20262;-61
2023/10/23 01:06:58;;;;;;;4.32;2.03;;;11.80;99.90;;;-141.84;87.77;15566.50;4983580;28;20207;-61
2023/10/23 01:09:26;;;;;;;5.20;2.20;;;11.80;99.90;;;-141.84;88.09;15562.44;4983663;28;20259;-60
2023/10/23 01:11:54;;;;;;;4.38;2.30;;;11.80;99.90;;;-141.84;88.33;15515.75;4983444;28;20247;-61
2023/10/23 01:14:24;;;;;;;4.85;2.20;;;11.80;99.90;;;-141.84;88.31;15523.88;4980691;28;20234;-60
2023/10/23 01:16:52;;;;;;;5.15;2.53;;;11.90;99.90;;;-141.84;88.41;15527.94;4983614;28;20573;-60
2023/10/23 01:19:21;;;;;;;7.15;2.60;;;11.80;99.90;;;-141.84;87.35;15657.84;4983240;28;20227;-61
2023/10/23 01:21:49;;;;;;;7.23;2.93;;;11.90;99.90;;;-141.84;86.23;15889.31;4983305;28;20250;-61
2023/10/23 01:24:20;;;;;;;5.40;2.33;;;11.90;99.90;;;-141.84;85.19;16116.69;4976502;28;20574;-61
2023/10/23 01:26:50;;;;;;;5.77;3.20;;;11.90;99.90;;;-141.84;84.71;16266.97;4983251;28;20235;-60
2023/10/23 01:29:18;;;;;;;6.32;2.47;;;12.00;99.90;;;-141.84;84.85;16258.84;4982392;28;20684;-61
2023/10/23 01:31:46;;;;;;;5.20;2.50;;;12.00;99.90;;;-141.84;84.76;16283.19;4983033;28;20262;-61
2023/10/23 01:34:15;;;;;;;5.22;2.33;;;12.00;99.90;;;-141.84;84.47;16388.78;4975532;28;20738;-61
2023/10/23 01:36:43;;;;;;;3.80;2.30;;;12.00;99.90;;;-141.84;84.62;16295.38;4983379;28;20301;-62
2023/10/23 01:39:11;;;;;;;6.30;2.78;;;12.00;99.90;;;-141.84;84.88;16177.63;4983849;28;20689;-61
2023/10/23 01:41:39;;;;;;;4.77;2.37;;;12.00;99.90;;;-141.84;85.00;16139.03;4983660;28;20270;-61
2023/10/23 01:44:09;;;;;;;3.30;2.20;;;12.00;99.90;;;-141.84;85.19;16122.78;4974658;28;20251;-61
2023/10/23 01:46:37;;;;;;;6.73;2.67;;;12.00;99.90;;;-141.84;85.40;16031.44;4982938;28;20239;-60
2023/10/23 01:49:06;;;;;;;5.10;2.13;;;12.00;99.90;;;-141.84;85.50;16029.41;4982961;28;20234;-61
2023/10/23 01:51:34;;;;;;;6.43;2.40;;;12.00;99.90;;;-141.84;85.41;16047.66;4983712;28;20200;-62
2023/10/23 01:54:02;;;;;;;10.27;2.85;;;11.90;99.90;;;-141.84;85.42;16049.69;4975144;28;20251;-61
2023/10/23 01:56:30;;;;;;;4.15;2.20;;;12.00;99.90;;;-141.84;85.11;16104.53;4982064;28;20616;-62
2023/10/23 01:58:59;;;;;;;4.88;2.85;;;11.90;99.90;;;-141.84;85.22;16067.97;4982124;28;20779;-60
2023/10/23 02:01:29;;;;;;;5.35;2.20;;;11.90;99.90;;;-141.84;85.08;16100.47;4982981;28;20235;-61
2023/10/23 02:03:57;;;;;;;5.05;2.50;;;12.00;99.90;;;-141.84;85.17;16047.66;4974795;28;20212;-60
2023/10/23 02:06:25;;;;;;;3.88;2.28;;;11.90;99.90;;;-141.84;85.23;15988.78;4987532;28;20211;-60
2023/10/23 02:08:53;;;;;;;5.55;3.05;;;11.90;99.90;;;-141.84;85.11;16078.13;4986615;28;20227;-60
2023/10/23 02:11:22;;;;;;;5.68;2.55;;;12.00;99.90;;;-141.84;84.66;16171.53;4986643;28;20333;-61
2023/10/23 02:13:50;;;;;;;5.63;2.70;;;11.90;99.90;;;-141.84;84.11;16435.50;4986455;28;20315;-61
2023/10/23 02:16:18;;;;;;;5.67;2.27;;;11.90;99.90;;;-141.84;83.68;16581.69;4979471;28;20333;-61
2023/10/23 02:18:48;;;;;;;4.07;2.42;;;12.00;99.90;;;-141.84;83.90;16453.78;4986643;28;20207;-61
2023/10/23 02:21:16;;;;;;;4.72;2.38;;;12.00;99.90;;;-141.84;84.32;16291.31;4987088;28;20207;-61
2023/10/23 02:23:44;;;;;;;3.95;2.30;;;11.90;99.90;;;-141.84;84.97;16108.59;4986441;28;20734;-61
2023/10/23 02:26:25;;;;;;;5.30;2.40;;;11.90;99.90;;;-141.84;84.97;16082.19;4986645;28;20282;-60
2023/10/23 02:28:53;;;;;;;8.47;2.47;;;11.90;99.90;;;-141.84;84.81;16130.91;4985209;28;20238;-60
2023/10/23 02:31:22;;;;;;;4.88;2.05;;;11.90;99.90;;;-141.84;84.99;16057.81;4986246;28;20655;-60
2023/10/23 02:33:52;;;;;;;6.40;2.50;;;11.90;99.90;;;-141.84;85.35;16000.97;4986189;28;20298;-60
2023/10/23 02:36:20;;;;;;;5.90;2.40;;;11.90;99.90;;;-141.84;85.47;15974.56;4980605;28;20211;-60
2023/10/23 02:38:48;;;;;;;5.88;2.10;;;11.90;99.90;;;-141.84;85.61;15940.06;4986030;28;20738;-60
2023/10/23 02:41:16;;;;;;;4.03;2.30;;;11.90;99.90;;;-141.84;85.54;15887.28;4986249;28;20259;-61
2023/10/23 02:43:45;;;;;;;5.45;2.25;;;11.90;99.90;;;-141.84;85.56;15860.88;4985652;28;20241;-60
2023/10/23 02:46:14;;;;;;;4.33;2.03;;;11.90;99.90;;;-141.84;85.36;15956.31;4979013;28;20235;-60
2023/10/23 02:48:42;;;;;;;7.93;2.70;;;11.90;99.90;;;-141.84;84.99;16100.47;4986453;28;20219;-61
2023/10/23 02:51:12;;;;;;;5.87;2.57;;;11.90;99.90;;;-141.84;84.07;16336.00;4986464;28;20266;-61
2023/10/23 02:53:40;;;;;;;6.25;3.42;;;12.00;99.90;;;-141.84;83.94;16502.50;4985463;28;20270;-61
2023/10/23 02:56:11;;;;;;;5.70;2.67;;;12.00;99.90;;;-141.84;83.47;16524.84;4977808;28;20234;-61
2023/10/23 02:58:40;;;;;;;4.80;2.60;;;12.00;99.90;;;-141.84;83.07;16701.50;4985639;28;20656;-60
2023/10/23 03:01:16;;;;;;;6.88;2.67;;;12.00;99.90;;;-141.84;83.34;16622.31;4975285;28;20236;-60
2023/10/23 03:03:44;;;;;;;3.50;2.57;;;12.10;99.90;;;-141.84;82.74;16872.09;4966061;28;20204;-61
2023/10/23 03:06:15;;;;;;;6.70;2.60;;;12.10;99.90;;;-141.84;81.97;17160.47;4959332;28;20303;-60
2023/10/23 03:08:43;;;;;;;5.53;2.27;;;12.10;99.90;;;-141.84;82.58;16991.91;4966129;28;20698;-61
2023/10/23 03:11:11;;;;;;;6.30;2.35;;;12.10;99.90;;;-141.84;82.81;16799.00;4965722;28;20232;-61
2023/10/23 03:13:40;;;;;;;4.70;1.80;;;12.10;99.90;;;-141.84;83.42;16599.97;4965868;28;20751;-60
2023/10/23 03:16:08;;;;;;;3.33;2.10;;;12.00;99.90;;;-141.84;83.47;16567.47;4958046;28;20236;-61
2023/10/23 03:18:36;;;;;;;3.33;2.00;;;12.00;99.90;;;-141.84;83.68;16482.19;4966902;28;20413;-62
2023/10/23 03:21:04;;;;;;;4.57;1.98;;;12.00;99.90;;;-141.84;83.15;16713.69;4965800;28;20256;-60
2023/10/23 03:23:35;;;;;;;5.45;2.00;;;12.10;99.90;;;-141.84;83.25;16664.97;4965453;28;20608;-61
2023/10/23 03:26:04;;;;;;;4.70;2.10;;;12.10;99.90;;;-141.84;83.45;16551.25;4969155;28;20226;-61
2023/10/23 03:28:32;;;;;;;3.63;1.85;;;12.10;99.90;;;-141.84;83.75;16423.31;4984228;28;20715;-61
2023/10/23 03:31:03;;;;;;;6.40;2.10;;;12.10;99.90;;;-141.84;83.28;16571.53;4984156;28;20597;-60
2023/10/23 03:33:32;;;;;;;7.30;2.30;;;12.10;99.90;;;-141.84;83.36;16559.38;4985362;28;20722;-61
2023/10/23 03:36:00;;;;;;;3.70;2.15;;;12.10;99.90;;;-141.84;83.25;16587.78;4977483;28;20231;-61
2023/10/23 03:38:29;;;;;;;4.85;2.42;;;12.10;99.90;;;-141.84;83.27;16644.66;4985042;28;20238;-60
2023/10/23 03:41:00;;;;;;;4.40;2.20;;;12.10;99.90;;;-141.84;83.82;16459.88;4985376;28;20297;-62
2023/10/23 03:43:28;;;;;;;3.65;2.10;;;12.10;99.90;;;-141.84;84.02;16350.22;4984860;28;20239;-60
2023/10/23 03:45:56;;;;;;;3.85;2.17;;;12.10;99.90;;;-141.84;84.01;16336.00;4982159;28;20205;-60
2023/10/23 03:48:25;;;;;;;5.35;2.67;;;12.10;99.90;;;-141.84;84.00;16287.25;4985534;28;20207;-61
2023/10/23 03:50:53;;;;;;;7.25;2.53;;;12.10;99.90;;;-141.84;84.19;16275.09;4984653;28;20242;-61
2023/10/23 03:53:21;;;;;;;3.42;2.00;;;12.10;99.90;;;-141.84;83.94;16344.13;4984424;28;20631;-60
2023/10/23 03:55:49;;;;;;;4.00;2.10;;;12.10;99.90;;;-141.84;83.88;16356.31;4984883;28;20250;-60
2023/10/23 03:58:19;;;;;;;4.68;2.33;;;12.10;99.90;;;-141.84;84.11;16242.59;4976313;28;20241;-61
2023/10/23 04:00:51;;;;;;;7.88;2.28;;;12.10;99.90;;;-141.84;84.11;16250.72;4985030;28;20313;-61
2023/10/23 04:03:19;;;;;;;5.30;2.50;;;12.10;99.90;;;-141.84;83.99;16321.78;4985512;28;20218;-61
2023/10/23 04:05:48;;;;;;;4.10;2.20;;;12.10;99.90;;;-141.84;84.15;16266.97;4984844;28;20231;-62
2023/10/23 04:08:16;;;;;;;4.05;2.45;;;12.10;99.90;;;-141.84;84.25;16193.88;4976691;28;20562;-61
2023/10/23 04:10:48;;;;;;;6.60;2.47;;;12.10;99.90;;;-141.84;84.33;16173.56;4984022;28;20223;-59
2023/10/23 04:13:16;;;;;;;6.97;2.28;;;12.10;99.90;;;-141.84;84.35;16165.44;4983993;28;20309;-60
2023/10/23 04:15:55;;;;;;;5.10;2.30;;;12.10;99.90;;;-141.84;84.69;16110.63;4984474;28;20741;-60
2023/10/23 04:18:25;;;;;;;3.92;2.03;;;12.10;99.90;;;-141.84;84.53;16106.56;4985150;28;20213;-60
2023/10/23 04:21:03;;;;;;;11.32;2.40;;;12.10;99.90;;;-141.84;84.61;16078.13;4984656;28;20228;-61
2023/10/23 04:23:32;;;;;;;3.90;2.00;;;12.10;99.90;;;-141.84;84.76;16080.16;4983924;28;20322;-61
2023/10/23 04:26:01;;;;;;;6.47;2.30;;;12.10;99.90;;;-141.84;84.69;16027.38;4976357;28;20231;-61
2023/10/23 04:28:30;;;;;;;5.45;2.10;;;12.10;99.90;;;-141.84;84.40;16128.88;4984364;28;20246;-61
2023/10/23 04:30:59;;;;;;;3.33;1.73;;;12.10;99.90;;;-141.84;84.21;16181.69;4983436;28;20243;-62
2023/10/23 04:33:28;;;;;;;3.67;2.08;;;12.10;99.90;;;-141.84;84.49;16124.81;4984852;28;20239;-60
2023/10/23 04:35:58;;;;;;;5.10;2.27;;;12.00;99.90;;;-141.84;83.80;16340.06;4981230;28;20833;-61
2023/10/23 04:38:27;;;;;;;4.13;2.05;;;12.10;99.90;;;-141.84;83.79;16407.06;4984163;28;20281;-61
2023/10/23 04:40:55;;;;;;;6.00;2.72;;;12.10;99.90;;;-141.84;84.40;16134.97;4983865;28;20259;-61
2023/10/23 04:43:23;;;;;;;6.60;2.37;;;12.00;99.90;;;-141.84;84.93;15950.22;4982811;28;20231;-61
2023/10/23 04:45:52;;;;;;;4.37;3.37;;;12.00;99.90;;;-141.84;85.20;15905.53;4983835;28;20606;-61
2023/10/23 04:48:23;;;;;;;6.97;3.50;;;11.90;99.90;;;-141.84;85.35;15852.75;4979216;28;20207;-61
2023/10/23 04:50:51;;;;;;;6.87;4.10;;;11.90;99.90;;;-141.84;85.52;15785.75;4982031;28;20285;-60
2023/10/23 04:53:20;;;;;;;5.20;3.33;;;11.80;99.90;;;-141.84;86.04;15645.69;4982503;28;20682;-60
2023/10/23 04:55:48;;;;;;;5.33;3.40;;;11.80;99.90;;;-141.84;86.60;15515.75;4983251;28;20317;-61
2023/10/23 04:58:16;;;;;;;4.57;2.83;;;11.70;99.90;;;-141.84;86.96;15452.81;4975929;28;20324;-61
2023/10/23 05:00:46;;;;;;;5.20;3.00;;;11.70;99.90;;;-141.84;87.42;15373.63;4979167;28;20306;-61
2023/10/23 05:03:14;;;;;;;5.97;2.70;;;11.60;99.90;;;-141.84;88.04;15335.06;4983092;28;20626;-61
2023/10/23 05:05:48;;;;;;;6.97;3.03;;;11.50;99.90;;;-141.84;88.40;15272.13;4982613;28;20323;-62
2023/10/23 05:08:16;;;;;;;7.13;3.47;;;11.50;99.90;;;-141.84;88.63;15253.88;4965452;28;20254;-60
2023/10/23 05:10:44;;;;;;;6.87;3.13;;;11.40;99.90;;;-141.84;88.60;15247.78;4982193;28;20255;-60
2023/10/23 05:13:13;;;;;;;5.23;2.60;;;11.40;99.90;;;-141.84;88.65;15262.00;4982554;28;20239;-61
2023/10/23 05:15:41;;;;;;;6.10;3.00;;;11.40;99.90;;;-141.84;88.08;15331.00;4982626;28;20215;-61
2023/10/23 05:18:09;;;;;;;6.50;2.57;;;11.40;99.90;;;-141.84;86.84;15548.22;4976428;28;20220;-60
2023/10/23 05:20:37;;;;;;;4.47;2.57;;;11.50;99.90;;;-141.84;85.99;15686.28;4983467;28;20326;-61
2023/10/23 05:23:07;;;;;;;6.10;2.57;;;11.60;99.90;;;-141.84;86.32;15611.16;4982989;28;20235;-63
2023/10/23 05:25:37;;;;;;;5.30;2.70;;;11.60;99.90;;;-141.84;86.28;15629.44;4982821;28;20285;-61
2023/10/23 05:28:05;;;;;;;3.60;2.10;;;11.60;99.90;;;-141.84;86.32;15625.38;4976130;28;20664;-60
2023/10/23 05:30:33;;;;;;;6.20;2.57;;;11.60;99.90;;;-141.84;86.73;15536.03;4983044;28;20299;-61
2023/10/23 05:33:03;;;;;;;8.00;2.77;;;11.60;99.90;;;-141.84;86.46;15586.81;4982976;28;20318;-60
2023/10/23 05:35:31;;;;;;;5.03;2.67;;;11.60;99.90;;;-141.84;86.49;15556.34;4983454;28;20263;-60
2023/10/23 05:37:59;;;;;;;6.53;3.03;;;11.70;99.90;;;-141.84;86.46;15556.34;4976275;28;20261;-60
2023/10/23 05:40:29;;;;;;;4.23;2.37;;;11.70;99.90;;;-141.84;84.74;15978.63;4985788;28;20262;-61
2023/10/23 05:42:57;;;;;;;4.50;3.10;;;11.70;99.90;;;-141.84;84.93;15946.16;4987286;28;20726;-61
2023/10/23 05:45:26;;;;;;;8.18;3.63;;;11.70;99.90;;;-141.84;85.39;15832.47;4985957;28;20629;-61
2023/10/23 05:47:54;;;;;;;6.10;2.77;;;11.70;99.90;;;-141.84;85.69;15771.53;4987516;28;20607;-61
2023/10/23 05:50:22;;;;;;;4.28;2.53;;;11.60;99.90;;;-141.84;86.02;15623.34;4983979;28;20293;-62
2023/10/23 05:52:50;;;;;;;5.60;2.73;;;11.70;99.90;;;-141.84;86.82;15499.50;4986811;28;20793;-61
2023/10/23 05:55:20;;;;;;;4.67;3.17;;;11.70;99.90;;;-141.84;87.28;15406.13;4986537;28;20235;-61
2023/10/23 05:57:50;;;;;;;4.57;3.00;;;11.70;99.90;;;-141.84;87.56;15389.88;4986547;28;20210;-60
2023/10/23 06:00:19;;;;;;;5.47;3.13;;;11.60;99.90;;;-141.84;87.56;15381.75;4979057;28;20214;-61
2023/10/23 06:02:47;;;;;;;5.83;2.80;;;11.60;99.90;;;-141.84;87.70;15343.19;4986606;28;20836;-61
2023/10/23 06:05:16;;;;;;;6.23;3.73;;;11.60;99.90;;;-141.84;87.88;15361.47;4987172;28;20238;-62
2023/10/23 06:07:44;;;;;;;6.83;3.50;;;11.60;99.90;;;-141.84;87.25;15385.81;4987081;28;20242;-61
2023/10/23 06:10:12;;;;;;;5.30;2.87;;;11.60;99.90;;;-141.84;87.37;15381.75;4979084;28;20235;-61
2023/10/23 06:12:41;;;;;;;5.43;2.97;;;11.60;99.90;;;-141.84;87.60;15365.53;4986043;28;20674;-60
2023/10/23 06:15:11;;;;;;;5.00;3.00;;;11.60;99.90;;;-141.84;87.67;15383.78;4986018;28;20208;-60
2023/10/23 06:17:39;;;;;;;5.63;3.33;;;11.70;99.90;;;-141.84;87.17;15440.63;4986605;28;20270;-60
2023/10/23 06:20:09;;;;;;;7.10;2.90;;;11.70;99.90;;;-141.84;86.80;15501.53;4979044;28;20273;-61
2023/10/23 06:22:37;;;;;;;5.73;3.07;;;11.70;99.90;;;-141.84;86.63;15519.81;4986645;28;20346;-60
2023/10/23 06:25:07;;;;;;;6.90;3.30;;;11.80;99.90;;;-141.84;85.37;15836.50;4987041;28;20711;-61
2023/10/23 06:27:35;;;;;;;5.23;3.13;;;11.80;99.90;;;-141.84;85.38;15743.13;4986856;28;20218;-61
2023/10/23 06:30:05;;;;;;;5.23;3.20;;;11.80;99.90;;;-141.84;85.43;15783.72;4977650;28;20257;-62
2023/10/23 06:32:36;;;;;;;5.15;3.00;;;11.80;99.90;;;-141.84;85.44;15814.19;4985536;28;20770;-60
2023/10/23 06:35:05;;;;;;;6.17;3.17;;;11.80;99.90;;;-141.84;85.12;15871.03;4986670;28;20246;-60
2023/10/23 06:37:33;;;;;;;5.10;3.05;;;11.80;99.90;;;-141.84;85.20;15799.97;4986349;28;20314;-61
2023/10/23 06:40:03;;;;;;;4.73;3.17;;;11.80;99.90;;;-141.84;85.52;15759.38;4978720;28;20323;-61
2023/10/23 06:42:31;;;;;;;6.53;3.27;;;11.80;99.90;;;-141.84;85.87;15627.41;4986265;28;20215;-61
2023/10/23 06:44:59;;;;;;;5.93;3.47;;;11.80;99.90;;;-141.84;86.40;15548.22;4984889;28;20227;-61
2023/10/23 06:47:28;;;;;;;4.87;2.80;;;11.80;99.90;;;-141.84;86.93;15505.59;4985745;28;20374;-61
2023/10/23 06:49:58;;;;;;;6.87;3.00;;;11.80;99.90;;;-141.84;87.08;15438.59;4983682;28;20242;-61
2023/10/23 06:52:27;;;;;;;4.63;2.53;;;11.80;99.90;;;-141.84;86.91;15495.44;4984722;28;20333;-61
2023/10/23 06:54:55;;;;;;;9.35;3.25;;;11.80;99.90;;;-141.84;86.85;15513.72;4987125;28;20223;-61
2023/10/23 06:57:23;;;;;;;5.70;2.73;;;11.80;99.90;;;-141.84;86.66;15536.03;4985911;28;20635;-60
2023/10/23 06:59:54;;;;;;;5.17;2.90;;;11.90;99.90;;;-141.84;86.89;15467.03;4985261;28;20466;-61
2023/10/23 07:02:22;;;;;;;3.80;2.87;;;11.90;99.90;;;-141.84;87.06;15440.63;4985078;28;20231;-61
2023/10/23 07:04:50;;;;;;;6.37;3.00;;;12.00;99.90;;;-141.84;86.55;15552.28;4985891;28;20238;-63
2023/10/23 07:07:20;;;;;;;7.25;2.50;;;12.00;99.90;;;-141.84;86.04;15609.13;4985994;28;20235;-60
2023/10/23 07:09:58;;;;;;;3.08;2.70;;;12.00;99.90;;;-141.84;86.14;15607.09;4978267;28;20583;-61
2023/10/23 07:12:28;;;;;;;4.47;2.70;;;12.10;99.90;;;-141.84;86.04;15643.66;4985837;28;20230;-60
2023/10/23 07:14:56;;;;;;;6.30;2.80;;;12.10;99.90;;;-141.84;85.75;15670.03;4984723;28;20263;-60
2023/10/23 07:17:25;;;;;;;5.57;3.00;;;12.10;99.90;;;-141.84;85.15;15848.69;4985554;28;20282;-60
2023/10/23 07:19:53;;;;;;;6.60;2.50;;;12.10;99.90;;;-141.84;84.67;15986.75;4985861;28;20234;-61
2023/10/23 07:22:23;;;;;;;4.18;2.47;;;12.20;99.90;;;-141.84;84.17;16208.06;4980727;28;20241;-60
2023/10/23 07:24:51;;;;;;;6.00;2.75;;;12.30;99.90;;;-141.84;83.84;16321.78;4985736;28;20258;-61
2023/10/23 07:27:19;;;;;;;4.75;2.50;;;12.40;99.90;;;-141.84;82.33;16829.44;4985621;28;20777;-61
2023/10/23 07:29:47;;;;;;;3.83;2.33;;;12.50;99.90;;;-141.84;81.54;17170.63;4984534;28;20604;-61
2023/10/23 07:32:15;;;;;;;4.03;2.97;;;12.60;99.90;;;-141.84;81.64;17115.81;4977084;28;20266;-61
2023/10/23 07:34:44;;;;;;;5.00;2.47;;;12.70;99.90;;;-141.84;81.19;17314.84;4984864;28;20663;-62
2023/10/23 07:37:17;;;;;;;5.28;3.15;;;12.90;99.90;;;-141.84;80.05;17806.38;4985132;28;20233;-61
2023/10/23 07:39:48;;;;;;;6.43;2.83;;;12.90;99.90;;;-141.84;78.80;18249.25;4985092;28;20297;-61
2023/10/23 07:42:16;;;;;;;6.40;3.17;;;13.00;99.90;;;-141.84;78.52;18407.69;4976512;28;20250;-61
2023/10/23 07:44:45;;;;;;;5.63;2.75;;;13.10;99.90;;;-141.84;78.38;18393.47;4983840;28;20255;-61
2023/10/23 07:47:13;;;;;;;7.57;2.97;;;13.20;99.90;;;-141.84;78.37;18421.91;4984683;28;20227;-61
2023/10/23 07:49:42;;;;;;;7.05;2.50;;;13.30;99.90;;;-141.84;77.74;18612.91;4984590;28;20650;-60
2023/10/23 07:52:10;;;;;;;4.07;2.25;;;13.40;99.90;;;-141.84;74.57;19328.13;4976988;28;20317;-61
2023/10/23 07:54:38;;;;;;;3.20;2.28;;;13.50;99.90;;;-141.84;74.92;19265.13;4985311;28;20238;-61
2023/10/23 07:57:08;;;;;;;5.10;2.40;;;13.60;99.90;;;-141.84;75.29;19222.47;4984895;28;20578;-61
2023/10/23 07:59:36;;;;;;;7.80;3.10;;;13.60;99.90;;;-141.84;74.17;19399.25;4984440;28;20411;-60
2023/10/23 08:02:05;;;;;;;4.18;2.30;;;13.70;99.90;;;-141.84;73.85;19423.66;4976048;28;20259;-61
2023/10/23 08:04:33;;;;;;;7.93;2.53;;;13.90;99.90;;;-141.84;72.94;19494.78;4984315;28;20251;-61
2023/10/23 08:07:01;;;;;;;4.38;2.00;;;13.90;99.90;;;-141.84;73.47;19470.38;4984607;28;20246;-60
2023/10/23 08:09:29;;;;;;;4.40;2.20;;;13.90;99.90;;;-141.84;72.80;19521.19;4984666;28;20211;-61
2023/10/23 08:11:58;;;;;;;2.50;1.80;;;14.00;99.90;;;-141.84;72.50;19545.56;4976667;28;20250;-60
2023/10/23 08:14:27;;;;;;;3.38;2.30;;;14.10;99.90;;;-141.84;72.83;19565.91;4983952;28;20319;-61
2023/10/23 08:16:55;;;;;;;3.88;2.17;;;14.10;99.90;;;-141.84;72.96;19494.78;4983892;28;20318;-62
2023/10/23 08:19:24;;;;;;;3.10;2.40;;;14.10;99.90;;;-141.84;73.47;19462.25;4984269;28;20254;-63
2023/10/23 08:21:52;;;;;;;5.32;2.28;;;14.00;99.90;;;-141.84;73.15;19462.25;4984072;28;20692;-61
2023/10/23 08:24:20;;;;;;;3.97;2.45;;;14.00;99.90;;;-141.84;72.66;19521.19;4978548;28;20582;-61
2023/10/23 08:26:48;;;;;;;3.53;2.42;;;14.00;99.90;;;-141.84;72.76;19517.13;4984298;28;21132;-60
2023/10/23 08:29:17;;;;;;;5.57;2.33;;;14.00;99.90;;;-141.84;71.78;19618.75;4983768;28;20227;-61
2023/10/23 08:31:46;;;;;;;5.25;2.72;;;14.10;99.90;;;-141.84;71.86;19614.66;4983732;28;20290;-62
2023/10/23 08:34:14;;;;;;;2.53;2.03;;;14.10;99.90;;;-141.84;72.12;19602.47;4975593;28;20231;-60
2023/10/23 08:36:43;;;;;;;4.85;2.17;;;14.20;99.90;;;-141.84;72.04;19618.75;4984147;28;20303;-60
2023/10/23 08:39:11;;;;;;;3.38;2.40;;;14.30;99.90;;;-141.84;70.57;19675.63;4983735;28;20310;-60
2023/10/23 08:41:39;;;;;;;4.03;2.38;;;14.40;99.90;;;-141.84;70.02;19763.03;4984072;28;20630;-60
2023/10/23 08:44:10;;;;;;;3.83;2.45;;;14.50;99.90;;;-141.84;70.41;19708.16;4975415;28;20254;-60
2023/10/23 08:46:40;;;;;;;4.28;2.10;;;14.50;99.90;;;-141.84;70.04;19704.09;4982826;28;20282;-61
2023/10/23 08:49:10;;;;;;;2.85;1.88;;;14.50;99.90;;;-141.84;70.27;19752.88;4983245;28;20234;-61
2023/10/23 08:51:42;;;;;;;3.60;1.77;;;14.60;99.90;;;-141.84;68.54;19769.13;4984400;28;20203;-61
2023/10/23 08:54:18;;;;;;;4.22;1.95;;;14.70;99.90;;;-141.84;68.36;19872.78;4956120;28;20244;-61
2023/10/23 08:56:54;;;;;;;2.67;1.52;;;14.80;99.90;;;-141.84;66.17;20017.09;4981599;28;20254;-61
2023/10/23 08:59:22;;;;;;;1.77;1.17;;;15.40;99.90;;;-141.84;65.34;20019.13;4983111;28;20234;-61
2023/10/23 09:01:51;;;;;;;2.80;1.38;;;15.70;99.90;;;-141.84;64.80;19978.47;4983689;28;20235;-61
2023/10/23 09:04:28;;;;;;;4.00;1.65;;;15.80;99.90;;;-141.84;63.89;20000.81;4983033;28;20809;-61
2023/10/23 09:06:59;;;;;;;1.42;1.30;;;15.80;99.90;;;-141.84;64.52;19982.53;4983838;28;20203;-61
2023/10/23 09:09:28;;;;;;;2.08;1.27;;;15.80;99.90;;;-141.84;63.96;19950.00;4983949;28;20207;-60
2023/10/23 09:11:57;;;;;;;2.05;1.67;;;15.70;99.90;;;-141.84;63.84;19964.25;4980590;28;20227;-61
2023/10/23 09:14:27;;;;;;;2.60;1.27;;;15.50;99.90;;;-141.84;64.49;19952.03;4982659;28;20396;-60
2023/10/23 09:16:57;;;;;;;3.08;1.20;;;15.60;99.90;;;-141.84;63.64;19978.47;4983074;28;20337;-61
2023/10/23 09:19:32;;;;;;;3.28;1.60;;;15.60;99.90;;;-141.84;63.45;20041.47;4983219;28;20231;-61
2023/10/23 09:22:01;;;;;;;1.05;0.95;;;15.70;99.90;;;-141.84;63.21;20031.31;4975108;28;20227;-60
2023/10/23 09:24:29;;;;;;;1.63;1.30;;;15.80;99.90;;;-141.84;61.79;20080.09;4983962;28;20239;-61
2023/10/23 09:26:57;;;;;;;2.03;1.50;;;15.90;99.90;;;-141.84;61.93;20071.97;4982883;28;20298;-61
2023/10/23 09:29:27;;;;;;;2.88;1.40;;;16.10;99.90;;;-141.84;61.09;20132.94;4983536;28;20309;-61
2023/10/23 09:31:58;;;;;;;2.30;1.60;;;16.10;99.90;;;-141.84;61.06;20126.84;4981959;28;20718;-60
2023/10/23 09:34:30;;;;;;;3.17;1.80;;;16.30;99.90;;;-141.84;60.56;20163.41;4983093;28;20239;-61
2023/10/23 09:36:58;;;;;;;2.50;1.77;;;16.30;99.90;;;-141.84;61.11;20130.91;4982994;28;20774;-61
2023/10/23 09:39:26;;;;;;;2.45;1.60;;;16.40;99.90;;;-141.84;61.67;20098.38;4983971;28;20218;-61
2023/10/23 09:41:56;;;;;;;2.72;1.80;;;16.30;99.90;;;-141.84;61.57;20181.72;4982441;28;20263;-61
2023/10/23 09:44:27;;;;;;;4.13;1.70;;;16.30;99.90;;;-141.84;61.74;20134.97;4979992;28;20251;-60
2023/10/23 09:46:59;;;;;;;3.25;1.90;;;16.40;99.90;;;-141.84;59.31;20230.50;4982916;28;20258;-61
2023/10/23 09:49:33;;;;;;;4.30;1.95;;;16.40;99.90;;;-141.84;60.02;20191.88;4963942;28;20311;-61
2023/10/23 09:52:09;;;;;;;4.43;2.10;;;16.40;99.90;;;-141.84;60.94;20165.44;4965164;28;20543;-60
2023/10/23 09:54:40;;;;;;;4.85;2.10;;;16.40;99.90;;;-141.84;61.25;20163.41;4983615;28;20836;-61
2023/10/23 09:57:11;;;;;;;6.38;2.30;;;16.40;99.90;;;-141.84;62.12;20092.28;4982129;28;20335;-60
2023/10/23 09:59:47;;;;;;;3.85;2.00;;;16.20;99.90;;;-141.84;63.12;20065.84;4982344;28;20726;-61
2023/10/23 10:02:19;;;;;;;4.05;2.03;;;16.10;99.90;;;-141.84;63.61;20055.69;4974586;28;20541;-61
2023/10/23 10:05:01;;;;;;;3.72;2.20;;;16.10;99.90;;;-141.84;63.28;20059.75;4983043;28;20335;-60
2023/10/23 10:07:42;;;;;;;3.67;1.98;;;16.10;99.90;;;-141.84;62.96;20096.34;4982886;28;20247;-61
2023/10/23 10:10:12;;;;;;;3.20;2.20;;;16.10;99.90;;;-141.84;61.59;20118.69;4975377;28;20311;-61
2023/10/23 10:12:42;;;;;;;3.70;1.90;;;16.20;99.90;;;-141.84;62.41;20120.75;4981327;28;20215;-62
2023/10/23 10:15:11;;;;;;;3.60;2.05;;;16.30;99.90;;;-141.84;62.23;20139.03;4983378;28;20227;-62